Recreo, Argentina
Current Conditions -  °F | °C
As of 7:00 AM on Friday 24 Oct 2014 (Local Time) from SACO Reporting Station
Clear Clear  
Wind Chill: 18°   Ceiling: Unl
Heat Index: 18°   Visibility: 6mi
Dew Point: 13°   Wind: 6mph
Humidity: 73%   Direction: 340°NNW
Pressure: 30"   Gusts: NA
Location:  29.27°S, 65.07°W
Report Text: SACO 241000Z 34005KT CAVOK 18/13 Q1016
Loading
Personal Weather Stations






























Interactive Weather Map
Tropical Storm Tracking
New forecast layout! Learn more

10-Day Weather Forecast

Advertisements
Track Severe Weather on mobile